createdAt,value
2022-09-06T00:00:28.130Z,14.96
2022-09-06T00:02:59.138Z,15.07
2022-09-06T00:05:27.427Z,14.61
2022-09-06T00:07:55.618Z,14.35
2022-09-06T00:10:23.609Z,14.08
2022-09-06T00:12:51.853Z,14.17
2022-09-06T00:15:20.194Z,14.49
2022-09-06T00:17:51.682Z,14.68
2022-09-06T00:20:20.078Z,14.24
2022-09-06T00:22:48.231Z,14.15
2022-09-06T00:25:16.458Z,14.26
2022-09-06T00:27:44.751Z,14.19
2022-09-06T00:30:14.023Z,14.45
2022-09-06T00:32:42.500Z,14.37
2022-09-06T00:35:12.547Z,14.57
2022-09-06T00:37:40.878Z,14.51
2022-09-06T00:40:10.227Z,14.70
2022-09-06T00:42:38.974Z,14.51
2022-09-06T00:45:08.631Z,14.42
2022-09-06T00:47:37.866Z,14.51
2022-09-06T00:50:07.648Z,14.31
2022-09-06T00:52:38.309Z,14.35
2022-09-06T00:55:07.897Z,14.44
2022-09-06T00:57:36.383Z,14.26
2022-09-06T01:00:07.512Z,14.38
2022-09-06T01:02:35.853Z,14.16
2022-09-06T01:05:05.747Z,14.31
2022-09-06T01:07:48.657Z,14.84
2022-09-06T01:10:38.379Z,14.56
2022-09-06T01:13:19.982Z,14.73
2022-09-06T01:15:54.817Z,14.35
2022-09-06T01:18:32.335Z,14.50
2022-09-06T01:21:10.437Z,14.55
2022-09-06T01:24:20.948Z,14.95
2022-09-06T01:27:29.550Z,14.81
2022-09-06T01:30:02.158Z,14.50
2022-09-06T01:32:36.806Z,14.35
2022-09-06T01:35:09.286Z,14.27
2022-09-06T01:37:38.202Z,14.15
2022-09-06T01:40:07.690Z,14.24
2022-09-06T01:42:36.806Z,14.39
2022-09-06T01:45:09.698Z,14.47
2022-09-06T01:47:41.351Z,14.29
2022-09-06T01:50:29.272Z,14.62
2022-09-06T01:53:02.311Z,14.60
2022-09-06T01:55:34.404Z,14.57
2022-09-06T01:58:22.728Z,14.63
2022-09-06T02:00:58.246Z,14.63
2022-09-06T02:03:30.072Z,14.43
2022-09-06T02:06:01.565Z,14.33
2022-09-06T02:08:34.045Z,14.31
2022-09-06T02:11:03.933Z,13.87
2022-09-06T02:13:35.422Z,14.16
2022-09-06T02:16:05.730Z,14.68
2022-09-06T02:18:37.470Z,14.12
2022-09-06T02:21:08.000Z,13.66
2022-09-06T02:23:39.516Z,13.83
2022-09-06T02:26:11.474Z,13.74
2022-09-06T02:28:39.880Z,13.53
2022-09-06T02:31:14.377Z,13.83
2022-09-06T02:33:43.070Z,13.33
2022-09-06T02:36:11.429Z,13.23
2022-09-06T02:38:41.090Z,13.45
2022-09-06T02:41:09.651Z,13.24
2022-09-06T02:43:38.291Z,13.15
2022-09-06T02:46:06.732Z,12.90
2022-09-06T02:48:36.438Z,13.26
2022-09-06T02:51:05.878Z,13.20
2022-09-06T02:53:34.441Z,12.92
2022-09-06T02:56:03.435Z,13.16
2022-09-06T02:58:32.118Z,13.23
2022-09-06T03:01:00.439Z,13.18
2022-09-06T03:03:29.442Z,13.03
2022-09-06T03:05:59.273Z,13.35
2022-09-06T03:08:33.556Z,13.17
2022-09-06T03:11:02.384Z,12.95
2022-09-06T03:13:30.690Z,13.07
2022-09-06T03:16:00.777Z,13.38
2022-09-06T03:18:31.294Z,13.20
2022-09-06T03:21:01.118Z,13.34
2022-09-06T03:23:30.681Z,13.33
2022-09-06T03:25:58.934Z,13.20
2022-09-06T03:28:28.017Z,12.84
2022-09-06T03:30:56.746Z,12.99
2022-09-06T03:33:25.163Z,12.90
2022-09-06T03:35:55.038Z,13.23
2022-09-06T03:38:25.516Z,13.28
2022-09-06T03:40:54.436Z,13.03
2022-09-06T03:43:24.307Z,13.12
2022-09-06T03:45:55.437Z,13.29
2022-09-06T03:48:25.622Z,13.07
2022-09-06T03:50:56.511Z,12.97
2022-09-06T03:53:27.845Z,13.16
2022-09-06T03:55:57.649Z,13.72
2022-09-06T03:58:26.875Z,13.03
2022-09-06T04:01:02.194Z,13.18
2022-09-06T04:03:32.355Z,12.99
2022-09-06T04:06:01.035Z,13.14
2022-09-06T04:08:30.799Z,13.27
2022-09-06T04:11:00.205Z,12.93
2022-09-06T04:13:29.168Z,12.79
2022-09-06T04:15:57.527Z,12.68
2022-09-06T04:18:26.414Z,12.79
2022-09-06T04:20:57.175Z,13.03
2022-09-06T04:23:26.706Z,12.79
2022-09-06T04:25:57.967Z,13.40
2022-09-06T04:28:26.863Z,13.24
2022-09-06T04:30:58.117Z,13.76
2022-09-06T04:33:30.037Z,13.84
2022-09-06T04:36:00.518Z,14.23
2022-09-06T04:38:29.966Z,14.35
2022-09-06T04:40:59.771Z,14.91
2022-09-06T04:43:28.251Z,14.75
2022-09-06T04:45:56.623Z,14.75
2022-09-06T04:48:24.789Z,14.74
2022-09-06T04:50:53.624Z,14.57
2022-09-06T04:53:21.812Z,14.69
2022-09-06T04:55:50.008Z,14.91
2022-09-06T04:58:19.758Z,15.48
2022-09-06T05:00:48.041Z,15.54
2022-09-06T05:03:16.305Z,15.71
2022-09-06T05:05:44.696Z,15.88
2022-09-06T05:08:12.870Z,15.95
2022-09-06T05:10:41.075Z,16.07
2022-09-06T05:13:09.552Z,16.49
2022-09-06T05:15:39.133Z,17.07
2022-09-06T05:18:07.999Z,17.46
2022-09-06T05:20:37.124Z,17.89
2022-09-06T05:23:05.493Z,17.96
2022-09-06T05:25:33.825Z,18.48
2022-09-06T05:28:02.507Z,19.06
2022-09-06T05:30:30.819Z,19.45
2022-09-06T05:33:00.559Z,19.87
2022-09-06T05:35:29.281Z,20.19
2022-09-06T05:37:58.025Z,20.45
2022-09-06T05:40:26.914Z,20.59
2022-09-06T05:42:55.569Z,20.06
2022-09-06T05:45:24.756Z,20.14
2022-09-06T05:47:53.229Z,19.94
2022-09-06T05:50:23.441Z,20.62
2022-09-06T05:52:51.693Z,20.84
2022-09-06T05:55:20.143Z,21.60
2022-09-06T05:57:48.528Z,21.86
2022-09-06T06:00:17.123Z,21.97
2022-09-06T06:02:47.995Z,21.59
2022-09-06T06:05:17.118Z,22.09
2022-09-06T06:07:46.732Z,22.26
2022-09-06T06:10:14.919Z,21.81
2022-09-06T06:12:43.265Z,21.39
2022-09-06T06:15:12.431Z,21.38
2022-09-06T06:17:43.140Z,21.09
2022-09-06T06:20:12.124Z,21.40
2022-09-06T06:22:40.409Z,21.99
2022-09-06T06:25:12.546Z,22.98
2022-09-06T06:27:41.203Z,23.33
2022-09-06T06:30:10.210Z,23.76
2022-09-06T06:32:38.419Z,23.93
2022-09-06T06:35:09.049Z,23.49
2022-09-06T06:37:37.293Z,22.71
2022-09-06T06:40:06.147Z,22.40
2022-09-06T06:42:36.060Z,22.70
2022-09-06T06:45:04.319Z,22.86
2022-09-06T06:47:33.158Z,22.93
2022-09-06T06:50:01.526Z,22.14
2022-09-06T06:52:29.851Z,21.48
2022-09-06T06:54:57.995Z,21.10
2022-09-06T06:57:26.930Z,20.88
2022-09-06T06:59:56.537Z,21.65
2022-09-06T07:02:24.792Z,21.32
2022-09-06T07:04:53.111Z,21.22
2022-09-06T07:07:38.172Z,20.91
2022-09-06T07:12:59.151Z,21.38
2022-09-06T07:15:28.808Z,22.40
2022-09-06T07:17:57.134Z,22.48
2022-09-06T07:20:27.386Z,22.54
2022-09-06T07:25:52.822Z,22.95
2022-09-06T07:28:21.460Z,23.45
2022-09-06T07:30:55.152Z,23.68
2022-09-06T07:33:23.658Z,23.35
2022-09-06T07:35:59.459Z,24.35
2022-09-06T07:38:28.882Z,25.27
2022-09-06T07:40:58.477Z,26.63
2022-09-06T07:43:26.867Z,26.73
2022-09-06T07:46:06.957Z,26.69
2022-09-06T07:48:36.253Z,25.27
2022-09-06T07:51:06.472Z,24.07
2022-09-06T07:53:35.028Z,22.68
2022-09-06T07:56:05.593Z,22.51
2022-09-06T07:58:34.197Z,21.77
2022-09-06T08:01:21.365Z,21.78
2022-09-06T08:03:49.863Z,20.94
2022-09-06T08:06:18.230Z,20.89
2022-09-06T08:09:01.657Z,20.60
2022-09-06T08:11:32.750Z,20.98
2022-09-06T08:14:02.748Z,20.43
2022-09-06T08:16:33.170Z,20.68
2022-09-06T08:19:02.771Z,19.87
2022-09-06T08:21:32.514Z,20.16
2022-09-06T08:24:02.148Z,20.05
2022-09-06T08:26:31.986Z,19.97
2022-09-06T08:29:01.681Z,20.23
2022-09-06T08:31:31.114Z,21.07
2022-09-06T08:34:01.823Z,21.65
2022-09-06T08:36:30.868Z,21.58
2022-09-06T08:38:59.373Z,21.60
2022-09-06T08:41:29.594Z,21.39
2022-09-06T08:46:55.941Z,22.46
2022-09-06T08:49:25.786Z,22.82
2022-09-06T08:52:08.850Z,23.12
2022-09-06T08:54:39.559Z,23.06
2022-09-06T08:57:14.563Z,23.02
2022-09-06T08:59:43.930Z,23.21
2022-09-06T09:02:14.390Z,23.06
2022-09-06T09:04:45.964Z,24.15
2022-09-06T09:07:34.449Z,26.12
2022-09-06T09:10:04.868Z,27.18
2022-09-06T09:12:33.978Z,26.78
2022-09-06T09:15:08.844Z,24.85
2022-09-06T09:17:38.282Z,23.46
2022-09-06T09:20:09.498Z,22.70
2022-09-06T09:22:37.769Z,23.50
2022-09-06T09:25:08.342Z,22.98
2022-09-06T09:27:37.461Z,22.56
2022-09-06T09:32:56.736Z,22.34
2022-09-06T09:35:32.078Z,22.55
2022-09-06T09:38:09.542Z,23.14
2022-09-06T09:40:42.303Z,23.69
2022-09-06T09:43:15.325Z,24.47
2022-09-06T09:45:44.622Z,25.86
2022-09-06T09:48:27.442Z,27.24
2022-09-06T09:51:25.486Z,26.25
2022-09-06T09:53:57.381Z,25.78
2022-09-06T09:56:38.561Z,26.42
2022-09-06T09:59:09.835Z,26.26
2022-09-06T10:01:39.906Z,26.23
2022-09-06T10:07:11.289Z,24.20
2022-09-06T10:09:41.055Z,23.93
2022-09-06T10:12:09.444Z,23.61
2022-09-06T10:14:43.597Z,23.07
2022-09-06T10:17:20.334Z,22.65
2022-09-06T10:19:49.026Z,22.48
2022-09-06T10:22:39.843Z,23.71
2022-09-06T10:25:27.797Z,23.85
2022-09-06T10:28:20.339Z,25.69
2022-09-06T10:30:59.543Z,27.23
2022-09-06T10:33:33.032Z,27.43
2022-09-06T10:36:02.757Z,28.41
2022-09-06T10:38:46.688Z,30.09
2022-09-06T10:41:29.749Z,31.45
2022-09-06T10:44:05.471Z,31.67
2022-09-06T10:46:38.334Z,30.01
2022-09-06T10:49:07.856Z,28.39
2022-09-06T10:51:40.996Z,28.20
2022-09-06T10:54:11.802Z,28.03
2022-09-06T10:56:43.676Z,28.11
2022-09-06T11:02:14.488Z,27.80
2022-09-06T11:07:35.548Z,29.67
2022-09-06T11:10:07.916Z,30.86
2022-09-06T11:12:40.631Z,31.51
2022-09-06T11:15:10.568Z,31.49
2022-09-06T11:17:43.232Z,31.16
2022-09-06T11:20:15.258Z,30.85
2022-09-06T11:22:59.730Z,31.12
2022-09-06T11:25:49.895Z,30.40
2022-09-06T11:28:20.200Z,31.22
2022-09-06T11:30:49.623Z,30.55
2022-09-06T11:33:24.667Z,30.13
2022-09-06T11:35:54.015Z,29.68
2022-09-06T11:38:25.211Z,30.07
2022-09-06T11:41:00.609Z,29.26
2022-09-06T11:43:45.111Z,28.60
2022-09-06T11:47:02.621Z,27.36
2022-09-06T11:49:37.464Z,26.53
2022-09-06T11:52:59.349Z,26.20
2022-09-06T11:55:39.120Z,25.75
2022-09-06T11:58:13.745Z,25.65
2022-09-06T12:00:42.022Z,25.12
2022-09-06T12:06:20.763Z,24.35
2022-09-06T12:08:50.223Z,24.06
2022-09-06T12:11:30.648Z,23.92
2022-09-06T12:14:03.649Z,23.40
2022-09-06T12:17:10.008Z,23.61
2022-09-06T12:19:44.922Z,23.46
2022-09-06T12:23:02.183Z,23.56
2022-09-06T12:26:00.515Z,23.92
2022-09-06T12:28:36.336Z,24.28
2022-09-06T12:31:34.308Z,24.68
2022-09-06T12:34:08.345Z,24.43
2022-09-06T12:36:36.792Z,24.06
2022-09-06T12:39:09.814Z,24.08
2022-09-06T12:41:43.275Z,24.46
2022-09-06T12:44:13.147Z,23.80
2022-09-06T12:46:47.251Z,23.76
2022-09-06T12:49:17.348Z,23.73
2022-09-06T12:51:45.716Z,23.33
2022-09-06T12:54:21.948Z,23.73
2022-09-06T12:56:50.916Z,23.17
2022-09-06T12:59:20.413Z,23.26
2022-09-06T13:01:56.060Z,23.50
2022-09-06T13:04:33.990Z,24.02
2022-09-06T13:07:03.130Z,23.72
2022-09-06T13:09:32.210Z,23.50
2022-09-06T13:12:05.467Z,24.00
2022-09-06T13:14:34.621Z,23.65
2022-09-06T13:17:04.292Z,23.71
2022-09-06T13:19:36.829Z,24.02
2022-09-06T13:22:07.643Z,23.44
2022-09-06T13:24:47.640Z,23.65
2022-09-06T13:27:27.518Z,23.69
2022-09-06T13:29:57.236Z,23.06
2022-09-06T13:32:27.917Z,22.94
2022-09-06T13:34:58.126Z,22.70
2022-09-06T13:37:28.016Z,23.02
2022-09-06T13:39:57.705Z,22.83
2022-09-06T13:42:31.036Z,22.62
2022-09-06T13:45:02.178Z,23.03
2022-09-06T13:47:31.710Z,23.96
2022-09-06T13:50:00.453Z,23.31
2022-09-06T13:52:29.386Z,22.53
2022-09-06T13:54:57.718Z,22.08
2022-09-06T13:57:25.935Z,22.40
2022-09-06T13:59:54.274Z,22.74
2022-09-06T14:02:22.500Z,23.07
2022-09-06T14:04:52.263Z,23.73
2022-09-06T14:07:20.916Z,23.35
2022-09-06T14:09:51.281Z,22.98
2022-09-06T14:12:19.568Z,22.99
2022-09-06T14:14:47.910Z,22.55
2022-09-06T14:17:16.195Z,22.51
2022-09-06T14:19:44.435Z,22.95
2022-09-06T14:22:14.629Z,23.28
2022-09-06T14:24:42.766Z,22.81
2022-09-06T14:27:10.915Z,22.87
2022-09-06T14:29:40.184Z,22.41
2022-09-06T14:32:08.456Z,22.04
2022-09-06T14:34:36.753Z,22.06
2022-09-06T14:37:05.283Z,22.33
2022-09-06T14:39:34.907Z,22.08
2022-09-06T14:42:03.261Z,22.16
2022-09-06T14:44:32.037Z,22.24
2022-09-06T14:47:00.761Z,22.39
2022-09-06T14:49:29.622Z,21.86
2022-09-06T14:51:58.399Z,21.79
2022-09-06T14:54:29.224Z,21.83
2022-09-06T14:56:59.097Z,22.43
2022-09-06T14:59:27.785Z,21.36
2022-09-06T15:01:56.383Z,21.39
2022-09-06T15:04:26.404Z,21.71
2022-09-06T15:06:54.802Z,21.65
2022-09-06T15:09:22.915Z,22.10
2022-09-06T15:11:52.406Z,22.34
2022-09-06T15:14:23.947Z,22.22
2022-09-06T15:16:55.823Z,22.88
2022-09-06T15:19:25.552Z,21.80
2022-09-06T15:21:54.246Z,21.63
2022-09-06T15:24:23.032Z,21.70
2022-09-06T15:26:51.571Z,21.38
2022-09-06T15:29:20.470Z,21.57
2022-09-06T15:31:52.071Z,21.79
2022-09-06T15:34:21.736Z,21.78
2022-09-06T15:36:50.700Z,21.47
2022-09-06T15:39:19.479Z,21.54
2022-09-06T15:41:48.154Z,21.90
2022-09-06T15:44:18.959Z,21.86
2022-09-06T15:46:51.169Z,22.18
2022-09-06T15:49:27.026Z,22.24
2022-09-06T15:51:57.548Z,22.34
2022-09-06T15:54:46.274Z,22.02
2022-09-06T15:57:16.627Z,21.94
2022-09-06T15:59:45.319Z,21.42
2022-09-06T16:02:15.291Z,21.35
2022-09-06T16:04:43.537Z,21.46
2022-09-06T16:07:12.009Z,21.11
2022-09-06T16:09:40.396Z,21.28
2022-09-06T16:12:09.329Z,21.16
2022-09-06T16:14:38.589Z,21.05
2022-09-06T16:17:06.856Z,20.73
2022-09-06T16:19:36.568Z,21.00
2022-09-06T16:22:05.459Z,20.56
2022-09-06T16:24:33.869Z,20.31
2022-09-06T16:27:02.434Z,20.48
2022-09-06T16:29:32.093Z,20.26
2022-09-06T16:32:00.787Z,20.66
2022-09-06T16:34:29.591Z,20.04
2022-09-06T16:37:00.341Z,20.76
2022-09-06T16:39:29.035Z,20.55
2022-09-06T16:41:57.164Z,20.45
2022-09-06T16:44:26.393Z,20.46
2022-09-06T16:46:56.293Z,20.51
2022-09-06T16:49:27.861Z,20.70
2022-09-06T16:51:56.524Z,20.11
2022-09-06T16:54:28.768Z,20.87
2022-09-06T16:56:57.377Z,20.72
2022-09-06T16:59:25.755Z,20.57
2022-09-06T17:01:58.618Z,20.37
2022-09-06T17:04:27.058Z,20.58
2022-09-06T17:06:55.531Z,20.43
2022-09-06T17:09:24.006Z,20.50
2022-09-06T17:11:53.723Z,20.81
2022-09-06T17:14:21.983Z,20.50
2022-09-06T17:17:09.983Z,20.28
2022-09-06T17:19:40.399Z,19.85
2022-09-06T17:22:10.156Z,19.66
2022-09-06T17:24:39.137Z,19.79
2022-09-06T17:27:09.748Z,19.92
2022-09-06T17:29:40.091Z,19.83
2022-09-06T17:32:10.437Z,19.99
2022-09-06T17:34:39.598Z,19.79
2022-09-06T17:37:08.029Z,19.74
2022-09-06T17:39:36.884Z,19.73
2022-09-06T17:42:05.568Z,19.80
2022-09-06T17:44:35.443Z,20.23
2022-09-06T17:47:13.457Z,19.84
2022-09-06T17:49:42.682Z,19.82
2022-09-06T17:52:11.287Z,19.35
2022-09-06T17:54:39.847Z,19.54
2022-09-06T17:57:08.597Z,19.47
2022-09-06T17:59:38.728Z,20.06
2022-09-06T18:02:07.424Z,19.76
2022-09-06T18:04:36.099Z,19.60
2022-09-06T18:07:05.092Z,19.39
2022-09-06T18:09:33.276Z,19.39
2022-09-06T18:12:02.214Z,19.34
2022-09-06T18:14:30.935Z,19.32
2022-09-06T18:17:00.564Z,19.57
2022-09-06T18:19:29.144Z,18.97
2022-09-06T18:21:57.851Z,18.92
2022-09-06T18:24:26.109Z,18.83
2022-09-06T18:26:54.435Z,18.65
2022-09-06T18:29:23.293Z,18.68
2022-09-06T18:31:53.725Z,18.49
2022-09-06T18:34:23.830Z,18.80
2022-09-06T18:36:52.727Z,18.71
2022-09-06T18:39:21.365Z,18.61
2022-09-06T18:42:09.470Z,18.83
2022-09-06T18:44:38.929Z,18.74
2022-09-06T18:47:08.467Z,18.81
2022-09-06T18:49:43.227Z,18.94
2022-09-06T18:52:12.290Z,18.51
2022-09-06T18:54:41.387Z,18.03
2022-09-06T18:57:09.459Z,17.60
2022-09-06T18:59:37.863Z,17.82
2022-09-06T19:02:06.230Z,17.90
2022-09-06T19:04:34.529Z,18.08
2022-09-06T19:07:05.080Z,18.30
2022-09-06T19:09:33.568Z,17.64
2022-09-06T19:12:03.562Z,17.53
2022-09-06T19:14:33.790Z,18.06
2022-09-06T19:17:02.130Z,17.91
2022-09-06T19:19:30.377Z,17.57
2022-09-06T19:21:58.814Z,17.70
2022-09-06T19:24:28.627Z,17.80
2022-09-06T19:26:56.849Z,17.28
2022-09-06T19:29:25.262Z,17.59
2022-09-06T19:31:54.694Z,17.16
2022-09-06T19:34:23.251Z,17.29
2022-09-06T19:36:55.394Z,17.29
2022-09-06T19:39:23.830Z,17.15
2022-09-06T19:41:53.628Z,17.11
2022-09-06T19:44:22.590Z,17.14
2022-09-06T19:46:51.451Z,17.02
2022-09-06T19:49:20.662Z,17.35
2022-09-06T19:51:50.999Z,17.04
2022-09-06T19:54:19.198Z,16.76
2022-09-06T19:56:48.049Z,16.83
2022-09-06T19:59:18.019Z,16.73
2022-09-06T20:01:47.589Z,16.61
2022-09-06T20:04:16.198Z,16.24
2022-09-06T20:06:45.024Z,16.28
2022-09-06T20:09:13.334Z,16.43
2022-09-06T20:11:42.877Z,16.43
2022-09-06T20:14:11.625Z,16.23
2022-09-06T20:16:42.604Z,16.23
2022-09-06T20:19:12.442Z,16.18
2022-09-06T20:21:40.889Z,16.26
2022-09-06T20:24:09.550Z,15.63
2022-09-06T20:26:38.082Z,15.83
2022-09-06T20:29:06.950Z,16.12
2022-09-06T20:31:37.091Z,16.10
2022-09-06T20:34:07.546Z,16.16
2022-09-06T20:36:36.116Z,16.00
2022-09-06T20:39:05.426Z,16.04
2022-09-06T20:41:33.986Z,15.74
2022-09-06T20:44:02.927Z,15.83
2022-09-06T20:46:33.408Z,16.13
2022-09-06T20:49:04.568Z,15.83
2022-09-06T20:51:36.692Z,15.74
2022-09-06T20:54:05.490Z,16.54
2022-09-06T20:56:36.058Z,16.19
2022-09-06T20:59:06.213Z,15.76
2022-09-06T21:01:36.860Z,15.40
2022-09-06T21:04:07.697Z,15.81
2022-09-06T21:06:41.822Z,15.82
2022-09-06T21:09:11.671Z,16.11
2022-09-06T21:11:40.534Z,16.02
2022-09-06T21:14:09.510Z,16.25
2022-09-06T21:16:38.653Z,16.04
2022-09-06T21:19:08.687Z,15.88
2022-09-06T21:21:38.836Z,16.04
2022-09-06T21:24:08.785Z,15.94
2022-09-06T21:26:37.479Z,15.96
2022-09-06T21:29:06.368Z,15.99
2022-09-06T21:31:37.391Z,15.86
2022-09-06T21:34:06.897Z,16.50
2022-09-06T21:36:39.154Z,15.76
2022-09-06T21:39:09.763Z,15.72
2022-09-06T21:41:38.795Z,15.64
2022-09-06T21:44:08.109Z,15.32
2022-09-06T21:46:38.473Z,15.60
2022-09-06T21:49:09.441Z,15.20
2022-09-06T21:51:39.887Z,15.44
2022-09-06T21:54:08.753Z,15.25
2022-09-06T21:56:38.487Z,15.45
2022-09-06T21:59:08.869Z,15.22
2022-09-06T22:01:38.895Z,14.88
2022-09-06T22:04:08.395Z,14.97
2022-09-06T22:06:37.912Z,14.77
2022-09-06T22:09:11.370Z,15.02
2022-09-06T22:11:40.824Z,14.85
2022-09-06T22:14:11.440Z,15.02
2022-09-06T22:16:40.976Z,15.15
2022-09-06T22:19:10.550Z,14.56
2022-09-06T22:21:39.910Z,15.19
2022-09-06T22:24:12.344Z,15.28
2022-09-06T22:26:42.125Z,15.09
2022-09-06T22:29:13.731Z,15.46
2022-09-06T22:31:42.842Z,15.07
2022-09-06T22:34:12.039Z,15.06
2022-09-06T22:36:40.775Z,14.91
2022-09-06T22:39:10.891Z,15.01
2022-09-06T22:41:39.397Z,14.78
2022-09-06T22:44:07.890Z,14.93
2022-09-06T22:46:37.858Z,15.16
2022-09-06T22:49:06.598Z,14.60
2022-09-06T22:51:35.149Z,15.01
2022-09-06T22:54:04.844Z,14.67
2022-09-06T22:56:35.888Z,14.91
2022-09-06T22:59:04.972Z,14.96
2022-09-06T23:01:38.870Z,14.91
2022-09-06T23:04:08.392Z,15.02
2022-09-06T23:06:38.046Z,15.19
2022-09-06T23:09:06.510Z,14.94
2022-09-06T23:11:36.601Z,14.84
2022-09-06T23:14:05.287Z,14.54
2022-09-06T23:16:33.966Z,14.88
2022-09-06T23:19:02.752Z,15.04
2022-09-06T23:21:31.187Z,14.89
2022-09-06T23:24:00.312Z,15.11
2022-09-06T23:26:30.890Z,15.33
2022-09-06T23:29:01.724Z,15.40
2022-09-06T23:31:32.753Z,15.17
2022-09-06T23:34:02.620Z,15.10
2022-09-06T23:36:31.873Z,14.91
2022-09-06T23:39:01.882Z,14.75
2022-09-06T23:41:30.480Z,14.68
2022-09-06T23:44:00.572Z,14.73
2022-09-06T23:46:29.184Z,14.48
2022-09-06T23:48:57.731Z,14.77
2022-09-06T23:51:26.456Z,14.88
2022-09-06T23:53:54.934Z,14.71
2022-09-06T23:56:23.666Z,14.51
2022-09-06T23:58:52.394Z,14.08
